createdAt,value
2023-03-12T00:01:33.393Z,5.07
2023-03-12T00:04:02.877Z,5.40
2023-03-12T00:06:30.693Z,5.95
2023-03-12T00:08:58.916Z,5.80
2023-03-12T00:11:26.598Z,5.38
2023-03-12T00:13:57.619Z,5.70
2023-03-12T00:16:26.231Z,5.75
2023-03-12T00:18:57.092Z,5.38
2023-03-12T00:21:25.638Z,5.60
2023-03-12T00:23:54.105Z,5.28
2023-03-12T00:26:23.032Z,5.18
2023-03-12T00:28:51.571Z,5.22
2023-03-12T00:31:23.137Z,5.13
2023-03-12T00:33:51.151Z,5.17
2023-03-12T00:36:19.757Z,5.00
2023-03-12T00:38:47.615Z,5.22
2023-03-12T00:41:15.286Z,5.28
2023-03-12T00:43:43.036Z,4.88
2023-03-12T00:46:10.834Z,4.70
2023-03-12T00:48:39.952Z,4.80
2023-03-12T00:51:07.947Z,4.97
2023-03-12T00:53:35.922Z,4.97
2023-03-12T00:56:04.260Z,5.00
2023-03-12T00:58:32.620Z,5.00
2023-03-12T01:01:00.687Z,4.60
2023-03-12T01:03:28.854Z,4.20
2023-03-12T01:05:57.887Z,4.47
2023-03-12T01:08:25.586Z,4.20
2023-03-12T01:10:53.547Z,3.90
2023-03-12T01:13:21.551Z,3.63
2023-03-12T01:15:49.397Z,4.00
2023-03-12T01:18:17.082Z,4.30
2023-03-12T01:20:45.034Z,4.50
2023-03-12T01:23:14.288Z,4.05
2023-03-12T01:25:47.407Z,4.07
2023-03-12T01:28:15.164Z,4.13
2023-03-12T01:30:42.832Z,3.58
2023-03-12T01:33:10.719Z,3.60
2023-03-12T01:35:39.533Z,3.72
2023-03-12T01:38:07.497Z,3.50
2023-03-12T01:40:38.009Z,3.40
2023-03-12T01:43:24.924Z,3.65
2023-03-12T01:46:29.953Z,3.28
2023-03-12T01:49:02.809Z,3.15
2023-03-12T01:51:34.776Z,2.83
2023-03-12T01:54:06.903Z,3.25
2023-03-12T01:56:37.674Z,3.20
2023-03-12T01:59:11.862Z,3.00
2023-03-12T02:01:41.599Z,3.22
2023-03-12T02:04:09.319Z,2.67
2023-03-12T02:06:43.780Z,3.03
2023-03-12T02:09:12.599Z,3.03
2023-03-12T02:11:41.747Z,3.20
2023-03-12T02:14:10.138Z,2.80
2023-03-12T02:16:38.002Z,3.58
2023-03-12T02:19:14.231Z,3.80
2023-03-12T02:21:42.194Z,3.40
2023-03-12T02:24:19.413Z,3.13
2023-03-12T02:26:49.739Z,3.22
2023-03-12T02:29:18.273Z,2.70
2023-03-12T02:31:51.352Z,2.88
2023-03-12T02:34:19.151Z,2.65
2023-03-12T02:36:46.872Z,3.08
2023-03-12T02:39:14.626Z,3.00
2023-03-12T02:41:45.721Z,3.08
2023-03-12T02:44:19.207Z,2.95
2023-03-12T02:46:50.082Z,3.40
2023-03-12T02:49:19.474Z,3.00
2023-03-12T02:51:48.476Z,3.10
2023-03-12T02:54:18.614Z,3.03
2023-03-12T02:56:46.720Z,3.15
2023-03-12T02:59:17.881Z,3.33
2023-03-12T03:01:45.730Z,3.38
2023-03-12T03:04:13.912Z,3.35
2023-03-12T03:06:44.956Z,3.33
2023-03-12T03:09:12.739Z,3.13
2023-03-12T03:11:40.948Z,3.30
2023-03-12T03:14:08.699Z,3.13
2023-03-12T03:16:38.203Z,3.00
2023-03-12T03:19:06.767Z,3.05
2023-03-12T03:21:34.980Z,3.25
2023-03-12T03:24:02.733Z,3.17
2023-03-12T03:26:30.841Z,3.33
2023-03-12T03:28:58.494Z,3.30
2023-03-12T03:31:26.209Z,3.60
2023-03-12T03:33:55.385Z,3.17
2023-03-12T03:36:23.267Z,3.30
2023-03-12T03:38:51.126Z,3.35
2023-03-12T03:41:19.716Z,3.45
2023-03-12T03:43:48.188Z,3.25
2023-03-12T03:46:16.939Z,3.42
2023-03-12T03:48:44.733Z,3.45
2023-03-12T03:51:13.792Z,3.05
2023-03-12T03:53:41.495Z,3.30
2023-03-12T03:56:10.625Z,2.95
2023-03-12T03:58:38.851Z,3.10
2023-03-12T04:01:07.116Z,3.45
2023-03-12T04:03:35.152Z,3.03
2023-03-12T04:06:06.022Z,3.08
2023-03-12T04:08:37.121Z,3.03
2023-03-12T04:11:08.850Z,3.05
2023-03-12T04:13:36.844Z,3.13
2023-03-12T04:16:05.046Z,3.00
2023-03-12T04:18:33.233Z,3.30
2023-03-12T04:21:00.926Z,2.80
2023-03-12T04:23:28.782Z,3.08
2023-03-12T04:25:57.861Z,2.63
2023-03-12T04:28:25.633Z,2.67
2023-03-12T04:30:59.410Z,2.45
2023-03-12T04:33:27.250Z,2.88
2023-03-12T04:35:55.125Z,2.58
2023-03-12T04:38:24.807Z,2.75
2023-03-12T04:41:00.778Z,2.58
2023-03-12T04:43:29.137Z,2.83
2023-03-12T04:45:57.654Z,2.60
2023-03-12T04:48:25.953Z,2.90
2023-03-12T04:50:53.782Z,3.10
2023-03-12T04:53:21.616Z,2.78
2023-03-12T04:55:49.338Z,2.92
2023-03-12T04:58:18.610Z,2.78
2023-03-12T05:00:46.853Z,2.50
2023-03-12T05:03:14.578Z,2.85
2023-03-12T05:05:42.415Z,2.85
2023-03-12T05:08:10.169Z,2.70
2023-03-12T05:10:37.990Z,2.60
2023-03-12T05:13:05.649Z,2.63
2023-03-12T05:15:38.013Z,2.83
2023-03-12T05:18:05.758Z,2.70
2023-03-12T05:20:33.447Z,2.88
2023-03-12T05:23:01.109Z,2.60
2023-03-12T05:25:28.832Z,3.03
2023-03-12T05:27:56.733Z,2.78
2023-03-12T05:30:24.659Z,2.65
2023-03-12T05:32:53.722Z,3.10
2023-03-12T05:35:21.453Z,3.20
2023-03-12T05:37:49.225Z,3.00
2023-03-12T05:40:17.086Z,2.88
2023-03-12T05:42:44.728Z,3.40
2023-03-12T05:45:12.658Z,3.30
2023-03-12T05:47:40.354Z,3.08
2023-03-12T05:50:11.390Z,3.00
2023-03-12T05:52:39.177Z,3.35
2023-03-12T05:55:08.575Z,2.97
2023-03-12T05:57:36.328Z,3.60
2023-03-12T06:00:05.125Z,3.28
2023-03-12T06:02:32.874Z,3.20
2023-03-12T06:05:00.717Z,3.08
2023-03-12T06:07:29.718Z,3.90
2023-03-12T06:09:57.455Z,3.92
2023-03-12T06:12:25.138Z,3.72
2023-03-12T06:14:52.756Z,3.50
2023-03-12T06:17:20.431Z,3.38
2023-03-12T06:19:51.810Z,3.85
2023-03-12T06:22:19.621Z,3.53
2023-03-12T06:24:48.693Z,3.28
2023-03-12T06:27:16.809Z,2.95
2023-03-12T06:29:46.373Z,3.30
2023-03-12T06:32:14.130Z,3.15
2023-03-12T06:34:42.028Z,3.80
2023-03-12T06:37:09.743Z,4.03
2023-03-12T06:39:37.788Z,3.33
2023-03-12T06:42:07.123Z,3.45
2023-03-12T06:44:34.911Z,3.50
2023-03-12T06:47:02.646Z,3.60
2023-03-12T06:49:33.206Z,3.63
2023-03-12T06:52:00.964Z,3.67
2023-03-12T06:54:28.732Z,3.53
2023-03-12T06:56:56.447Z,4.05
2023-03-12T06:59:25.660Z,3.80
2023-03-12T07:01:53.772Z,4.40
2023-03-12T07:04:21.819Z,4.40
2023-03-12T07:06:51.262Z,4.47
2023-03-12T07:09:19.390Z,4.25
2023-03-12T07:11:47.256Z,4.32
2023-03-12T07:14:15.090Z,4.78
2023-03-12T07:16:44.266Z,4.45
2023-03-12T07:19:11.988Z,4.80
2023-03-12T07:21:39.738Z,4.70
2023-03-12T07:24:08.832Z,4.90
2023-03-12T07:26:36.869Z,4.72
2023-03-12T07:29:05.249Z,5.10
2023-03-12T07:31:33.045Z,4.95
2023-03-12T07:34:03.083Z,5.40
2023-03-12T07:36:30.961Z,4.65
2023-03-12T07:38:58.867Z,5.15
2023-03-12T07:41:26.678Z,5.43
2023-03-12T07:43:54.408Z,5.10
2023-03-12T07:46:22.147Z,4.85
2023-03-12T07:48:49.988Z,4.97
2023-03-12T07:51:19.052Z,5.28
2023-03-12T07:53:46.815Z,4.88
2023-03-12T07:56:14.705Z,4.80
2023-03-12T07:58:42.618Z,5.22
2023-03-12T08:01:10.520Z,4.72
2023-03-12T08:03:39.054Z,5.45
2023-03-12T08:06:31.931Z,5.00
2023-03-12T08:08:59.720Z,5.10
2023-03-12T08:11:29.674Z,5.88
2023-03-12T08:13:57.476Z,5.78
2023-03-12T08:16:25.337Z,6.25
2023-03-12T08:18:53.115Z,6.40
2023-03-12T08:21:20.983Z,6.82
2023-03-12T08:23:50.052Z,6.68
2023-03-12T08:26:17.873Z,6.85
2023-03-12T08:28:45.904Z,7.03
2023-03-12T08:31:16.738Z,7.20
2023-03-12T08:33:44.586Z,7.28
2023-03-12T08:36:12.351Z,7.65
2023-03-12T08:38:40.129Z,8.15
2023-03-12T08:41:10.286Z,7.75
2023-03-12T08:43:37.993Z,7.65
2023-03-12T08:46:06.143Z,7.40
2023-03-12T08:48:34.591Z,7.10
2023-03-12T08:51:04.338Z,8.45
2023-03-12T08:53:33.274Z,7.70
2023-03-12T08:56:01.197Z,9.02
2023-03-12T08:58:31.364Z,8.85
2023-03-12T09:00:59.332Z,8.93
2023-03-12T09:03:27.304Z,10.50
2023-03-12T09:06:04.973Z,10.90
2023-03-12T09:08:34.042Z,14.93
2023-03-12T09:11:02.728Z,13.55
2023-03-12T09:13:50.753Z,13.25
2023-03-12T09:16:20.049Z,11.80
2023-03-12T09:18:47.785Z,13.57
2023-03-12T09:21:15.528Z,11.85
2023-03-12T09:23:43.429Z,12.32
2023-03-12T09:26:11.454Z,14.75
2023-03-12T09:28:40.751Z,14.02
2023-03-12T09:31:08.577Z,17.80
2023-03-12T09:33:36.381Z,20.67
2023-03-12T09:36:04.786Z,22.52
2023-03-12T09:38:35.336Z,25.33
2023-03-12T09:41:05.582Z,25.40
2023-03-12T09:43:38.809Z,25.25
2023-03-12T09:46:14.826Z,29.08
2023-03-12T09:48:44.721Z,20.02
2023-03-12T09:51:21.262Z,21.70
2023-03-12T09:53:52.704Z,22.45
2023-03-12T09:56:22.943Z,22.27
2023-03-12T09:58:54.613Z,21.70
2023-03-12T10:01:36.498Z,18.45
2023-03-12T10:04:25.763Z,13.18
2023-03-12T10:07:00.318Z,18.77
2023-03-12T10:09:41.633Z,20.58
2023-03-12T10:12:19.644Z,17.73
2023-03-12T10:15:03.730Z,16.60
2023-03-12T10:17:44.995Z,20.02
2023-03-12T10:20:41.676Z,18.60
2023-03-12T10:23:14.363Z,16.10
2023-03-12T10:25:48.294Z,15.23
2023-03-12T10:28:19.586Z,16.40
2023-03-12T10:30:51.531Z,14.93
2023-03-12T10:33:22.352Z,15.68
2023-03-12T10:35:52.208Z,16.75
2023-03-12T10:38:26.900Z,16.30
2023-03-12T10:40:54.651Z,17.60
2023-03-12T10:43:22.727Z,15.98
2023-03-12T10:46:03.151Z,18.00
2023-03-12T10:48:32.493Z,16.80
2023-03-12T10:51:05.780Z,15.32
2023-03-12T10:53:35.539Z,13.18
2023-03-12T10:56:06.956Z,15.60
2023-03-12T10:58:37.896Z,13.18
2023-03-12T11:01:21.840Z,12.82
2023-03-12T11:03:52.041Z,13.20
2023-03-12T11:06:27.466Z,11.75
2023-03-12T11:09:18.366Z,12.07
2023-03-12T11:11:48.405Z,11.90
2023-03-12T11:14:20.076Z,12.48
2023-03-12T11:16:48.079Z,11.93
2023-03-12T11:19:29.157Z,12.82
2023-03-12T11:21:58.974Z,12.57
2023-03-12T11:24:27.198Z,11.25
2023-03-12T11:27:03.167Z,13.95
2023-03-12T11:29:33.400Z,12.45
2023-03-12T11:32:07.227Z,13.52
2023-03-12T11:34:39.428Z,13.63
2023-03-12T11:37:16.177Z,13.38
2023-03-12T11:40:00.154Z,14.65
2023-03-12T11:42:41.320Z,14.13
2023-03-12T11:45:18.697Z,13.75
2023-03-12T11:47:58.352Z,13.40
2023-03-12T11:50:33.730Z,13.30
2023-03-12T11:53:18.441Z,13.32
2023-03-12T11:55:57.000Z,15.45
2023-03-12T11:58:40.795Z,13.38
2023-03-12T12:01:14.074Z,14.05
2023-03-12T12:04:21.426Z,13.40
2023-03-12T12:07:01.762Z,13.43
2023-03-12T12:09:38.202Z,14.48
2023-03-12T12:12:22.465Z,14.05
2023-03-12T12:15:04.810Z,13.68
2023-03-12T12:17:43.093Z,14.70
2023-03-12T12:20:21.592Z,14.88
2023-03-12T12:23:05.637Z,14.13
2023-03-12T12:25:47.423Z,13.85
2023-03-12T12:28:28.677Z,12.23
2023-03-12T12:31:09.239Z,15.05
2023-03-12T12:33:52.873Z,13.65
2023-03-12T12:36:20.789Z,14.80
2023-03-12T12:38:56.852Z,14.93
2023-03-12T12:41:26.417Z,14.45
2023-03-12T12:43:57.795Z,15.25
2023-03-12T12:46:29.201Z,14.55
2023-03-12T12:49:02.164Z,16.30
2023-03-12T12:51:33.970Z,14.80
2023-03-12T12:54:09.670Z,17.70
2023-03-12T12:56:44.870Z,15.50
2023-03-12T12:59:27.489Z,15.40
2023-03-12T13:04:29.642Z,17.05
2023-03-12T13:07:01.406Z,16.85
2023-03-12T13:09:43.499Z,16.75
2023-03-12T13:12:19.232Z,16.25
2023-03-12T13:14:48.205Z,17.13
2023-03-12T13:17:31.209Z,17.48
2023-03-12T13:20:10.793Z,17.25
2023-03-12T13:23:10.303Z,17.27
2023-03-12T13:25:53.340Z,16.00
2023-03-12T13:28:35.840Z,17.63
2023-03-12T13:31:29.004Z,17.15
2023-03-12T13:33:59.405Z,16.95
2023-03-12T13:36:29.121Z,15.77
2023-03-12T13:39:01.774Z,16.23
2023-03-12T13:41:39.059Z,15.80
2023-03-12T13:44:30.249Z,16.60
2023-03-12T13:47:03.047Z,17.80
2023-03-12T13:49:38.449Z,17.90
2023-03-12T13:52:22.129Z,17.83
2023-03-12T13:54:59.558Z,15.50
2023-03-12T13:57:38.760Z,12.32
2023-03-12T14:00:16.440Z,11.75
2023-03-12T14:02:49.988Z,13.30
2023-03-12T14:05:19.671Z,11.45
2023-03-12T14:08:06.909Z,13.07
2023-03-12T14:10:46.756Z,11.77
2023-03-12T14:13:29.841Z,11.52
2023-03-12T14:16:06.841Z,9.93
2023-03-12T14:18:36.866Z,8.63
2023-03-12T14:21:11.565Z,8.20
2023-03-12T14:23:45.509Z,8.23
2023-03-12T14:26:24.523Z,7.88
2023-03-12T14:29:00.751Z,8.10
2023-03-12T14:31:33.684Z,7.88
2023-03-12T14:34:07.031Z,8.23
2023-03-12T14:36:40.790Z,7.85
2023-03-12T14:39:23.263Z,8.05
2023-03-12T14:41:56.840Z,9.40
2023-03-12T14:44:28.090Z,8.07
2023-03-12T14:47:01.271Z,7.45
2023-03-12T14:49:30.244Z,7.80
2023-03-12T14:51:59.870Z,7.95
2023-03-12T14:54:31.785Z,8.50
2023-03-12T14:56:59.534Z,6.85
2023-03-12T14:59:33.149Z,7.68
2023-03-12T15:02:05.239Z,7.78
2023-03-12T15:04:35.848Z,7.15
2023-03-12T15:07:07.830Z,7.03
2023-03-12T15:09:37.465Z,8.55
2023-03-12T15:12:07.849Z,7.05
2023-03-12T15:14:42.394Z,8.48
2023-03-12T15:17:16.589Z,8.27
2023-03-12T15:19:45.352Z,6.55
2023-03-12T15:22:16.943Z,7.10
2023-03-12T15:24:45.121Z,7.27
2023-03-12T15:27:21.926Z,8.02
2023-03-12T15:29:51.121Z,7.38
2023-03-12T15:32:21.554Z,6.60
2023-03-12T15:34:49.867Z,6.60
2023-03-12T15:37:24.850Z,7.22
2023-03-12T15:39:54.368Z,6.65
2023-03-12T15:42:25.354Z,6.00
2023-03-12T15:44:57.189Z,7.07
2023-03-12T15:47:27.781Z,6.38
2023-03-12T15:49:58.919Z,6.82
2023-03-12T15:52:32.504Z,6.13
2023-03-12T15:55:07.389Z,7.03
2023-03-12T15:57:41.752Z,6.05
2023-03-12T16:00:33.067Z,6.85
2023-03-12T16:03:04.008Z,6.13
2023-03-12T16:05:33.392Z,6.47
2023-03-12T16:08:03.641Z,6.82
2023-03-12T16:10:36.035Z,8.23
2023-03-12T16:13:04.869Z,8.15
2023-03-12T16:15:38.504Z,6.93
2023-03-12T16:18:06.401Z,6.78
2023-03-12T16:20:34.158Z,6.63
2023-03-12T16:23:02.186Z,8.07
2023-03-12T16:25:29.996Z,9.07
2023-03-12T16:28:02.727Z,7.53
2023-03-12T16:30:32.915Z,6.07
2023-03-12T16:33:06.080Z,6.47
2023-03-12T16:35:36.223Z,7.22
2023-03-12T16:38:04.131Z,6.22
2023-03-12T16:40:34.913Z,5.93
2023-03-12T16:43:04.684Z,6.70
2023-03-12T16:45:35.928Z,5.95
2023-03-12T16:48:07.396Z,6.18
2023-03-12T16:50:35.246Z,6.47
2023-03-12T16:53:03.978Z,6.45
2023-03-12T16:55:41.569Z,7.57
2023-03-12T16:58:14.173Z,7.88
2023-03-12T17:00:43.733Z,6.88
2023-03-12T17:03:20.585Z,7.38
2023-03-12T17:05:48.412Z,6.40
2023-03-12T17:08:16.919Z,6.07
2023-03-12T17:10:44.879Z,10.00
2023-03-12T17:13:20.600Z,7.20
2023-03-12T17:15:49.333Z,6.63
2023-03-12T17:18:19.204Z,6.32
2023-03-12T17:20:47.842Z,6.25
2023-03-12T17:23:15.932Z,6.13
2023-03-12T17:25:45.371Z,7.15
2023-03-12T17:28:15.368Z,6.55
2023-03-12T17:30:44.088Z,6.53
2023-03-12T17:33:14.003Z,5.70
2023-03-12T17:35:44.222Z,6.15
2023-03-12T17:38:12.953Z,7.20
2023-03-12T17:40:41.778Z,6.72
2023-03-12T17:43:09.857Z,7.07
2023-03-12T17:45:37.885Z,6.20
2023-03-12T17:48:05.822Z,6.60
2023-03-12T17:50:33.557Z,6.82
2023-03-12T17:53:02.949Z,6.43
2023-03-12T17:55:30.802Z,6.72
2023-03-12T17:57:58.585Z,7.13
2023-03-12T18:00:26.345Z,7.57
2023-03-12T18:02:54.163Z,7.05
2023-03-12T18:05:22.627Z,6.97
2023-03-12T18:07:52.272Z,7.00
2023-03-12T18:10:21.723Z,7.18
2023-03-12T18:12:49.643Z,8.30
2023-03-12T18:15:18.037Z,6.68
2023-03-12T18:17:46.061Z,7.28
2023-03-12T18:20:25.840Z,6.63
2023-03-12T18:23:00.091Z,6.07
2023-03-12T18:25:29.200Z,6.53
2023-03-12T18:27:56.936Z,6.85
2023-03-12T18:30:24.686Z,6.13
2023-03-12T18:32:52.464Z,6.45
2023-03-12T18:35:20.275Z,6.20
2023-03-12T18:37:48.015Z,6.78
2023-03-12T18:40:15.856Z,6.25
2023-03-12T18:42:44.950Z,6.13
2023-03-12T18:45:13.239Z,6.35
2023-03-12T18:47:41.987Z,6.38
2023-03-12T18:50:11.232Z,6.43
2023-03-12T18:52:39.304Z,6.80
2023-03-12T18:55:07.706Z,8.75
2023-03-12T18:57:35.521Z,7.15
2023-03-12T19:00:06.358Z,7.03
2023-03-12T19:02:34.124Z,6.80
2023-03-12T19:05:04.120Z,8.52
2023-03-12T19:07:32.191Z,6.82
2023-03-12T19:10:00.411Z,7.00
2023-03-12T19:12:30.402Z,6.68
2023-03-12T19:14:59.589Z,6.75
2023-03-12T19:17:29.364Z,6.28
2023-03-12T19:19:57.836Z,6.78
2023-03-12T19:22:25.564Z,6.82
2023-03-12T19:24:54.043Z,6.63
2023-03-12T19:27:21.877Z,6.97
2023-03-12T19:29:49.633Z,7.60
2023-03-12T19:32:17.455Z,5.88
2023-03-12T19:34:50.128Z,6.22
2023-03-12T19:37:19.708Z,6.30
2023-03-12T19:39:47.466Z,5.90
2023-03-12T19:42:15.280Z,8.60
2023-03-12T19:44:43.209Z,6.47
2023-03-12T19:47:11.123Z,6.60
2023-03-12T19:49:38.839Z,6.13
2023-03-12T19:52:07.989Z,6.90
2023-03-12T19:54:35.837Z,6.03
2023-03-12T19:57:03.720Z,6.10
2023-03-12T19:59:31.521Z,6.13
2023-03-12T20:02:01.607Z,6.40
2023-03-12T20:04:30.237Z,6.13
2023-03-12T20:06:57.970Z,8.02
2023-03-12T20:09:27.205Z,8.70
2023-03-12T20:11:55.014Z,6.25
2023-03-12T20:14:25.919Z,6.93
2023-03-12T20:16:54.034Z,6.13
2023-03-12T20:19:21.781Z,6.47
2023-03-12T20:21:50.402Z,6.75
2023-03-12T20:24:18.164Z,6.85
2023-03-12T20:26:47.542Z,6.75
2023-03-12T20:29:15.336Z,6.20
2023-03-12T20:31:44.340Z,6.95
2023-03-12T20:34:12.194Z,7.20
2023-03-12T20:36:39.908Z,6.63
2023-03-12T20:39:07.714Z,6.68
2023-03-12T20:41:35.575Z,8.05
2023-03-12T20:44:04.679Z,8.18
2023-03-12T20:46:32.368Z,8.20
2023-03-12T20:49:00.132Z,8.35
2023-03-12T20:51:27.878Z,8.35
2023-03-12T20:53:55.626Z,8.48
2023-03-12T20:56:23.684Z,9.55
2023-03-12T20:58:52.158Z,9.80
2023-03-12T21:01:24.373Z,11.60
2023-03-12T21:03:52.232Z,11.98
2023-03-12T21:06:20.021Z,11.00
2023-03-12T21:08:50.622Z,11.73
2023-03-12T21:11:18.562Z,11.82
2023-03-12T21:13:46.310Z,11.40
2023-03-12T21:16:14.016Z,11.02
2023-03-12T21:18:45.887Z,10.27
2023-03-12T21:21:13.755Z,9.63
2023-03-12T21:23:41.571Z,8.75
2023-03-12T21:26:10.116Z,8.65
2023-03-12T21:28:37.843Z,8.48
2023-03-12T21:31:07.367Z,8.95
2023-03-12T21:33:35.286Z,10.88
2023-03-12T21:36:13.890Z,10.25
2023-03-12T21:38:42.895Z,9.25
2023-03-12T21:41:12.543Z,10.40
2023-03-12T21:43:41.242Z,10.32
2023-03-12T21:46:11.138Z,9.23
2023-03-12T21:48:39.390Z,9.93
2023-03-12T21:51:10.766Z,10.70
2023-03-12T21:53:39.156Z,10.05
2023-03-12T21:56:08.691Z,11.88
2023-03-12T21:58:37.469Z,11.43
2023-03-12T22:01:08.240Z,10.95
2023-03-12T22:03:36.764Z,10.45
2023-03-12T22:06:04.899Z,10.32
2023-03-12T22:08:34.728Z,9.38
2023-03-12T22:11:02.762Z,10.88
2023-03-12T22:13:30.469Z,9.15
2023-03-12T22:15:59.742Z,10.65
2023-03-12T22:18:28.649Z,10.65
2023-03-12T22:20:59.702Z,9.85
2023-03-12T22:23:27.388Z,9.45
2023-03-12T22:25:56.802Z,9.68
2023-03-12T22:28:25.898Z,9.15
2023-03-12T22:30:58.489Z,9.55
2023-03-12T22:35:53.857Z,9.27
2023-03-12T22:38:21.755Z,8.73
2023-03-12T22:40:49.798Z,7.07
2023-03-12T22:43:18.852Z,6.90
2023-03-12T22:45:46.561Z,8.50
2023-03-12T22:48:14.255Z,8.02
2023-03-12T22:50:41.944Z,8.05
2023-03-12T22:53:09.879Z,8.35
2023-03-12T22:55:37.515Z,8.07
2023-03-12T22:58:05.881Z,8.38
2023-03-12T23:00:34.947Z,8.90
2023-03-12T23:03:02.765Z,9.00
2023-03-12T23:05:30.415Z,8.48
2023-03-12T23:07:58.176Z,9.80
2023-03-12T23:10:25.847Z,10.02
2023-03-12T23:12:53.568Z,9.68
2023-03-12T23:15:24.510Z,8.80
2023-03-12T23:17:58.093Z,9.55
2023-03-12T23:20:25.824Z,10.27
2023-03-12T23:22:53.544Z,9.35
2023-03-12T23:25:21.218Z,8.10
2023-03-12T23:27:48.940Z,7.75
2023-03-12T23:30:16.747Z,9.27
2023-03-12T23:32:44.561Z,9.93
2023-03-12T23:35:13.672Z,9.07
2023-03-12T23:37:41.469Z,10.25
2023-03-12T23:40:11.158Z,9.45
2023-03-12T23:42:38.859Z,9.50
2023-03-12T23:45:07.974Z,10.48
2023-03-12T23:47:35.679Z,9.13
2023-03-12T23:50:03.652Z,8.55
2023-03-12T23:52:32.770Z,7.53
2023-03-12T23:55:00.431Z,7.85
2023-03-12T23:57:28.692Z,8.20
2023-03-12T23:59:56.386Z,9.52
